Time,TemperatureF,DewpointF,PressureIn,WindDirection,WindDirectionDegrees,WindSpeedMPH,WindSpeedGustMPH,Humidity,HourlyPrecipIn,Conditions,Clouds,dailyrainin,SolarRadiationWatts/m^2,SoftwareType,DateUTC
2013-03-08 00:21:00,45.0,45.0,29.97,West,278,10.0,32.0,100,0.10,,,0.15,0.000000,,2013-03-08 08:21:00,
2013-03-08 00:31:00,45.0,45.0,29.97,West,278,10.0,32.0,100,0.10,,,0.15,0.000000,,2013-03-08 08:31:00,
2013-03-08 00:41:00,45.0,45.0,29.97,West,278,10.0,32.0,100,0.10,,,0.15,0.000000,,2013-03-08 08:41:00,
2013-03-08 00:52:00,45.0,45.0,29.97,West,278,10.0,32.0,100,0.10,,,0.15,0.000000,,2013-03-08 08:52:00,
2013-03-08 01:21:00,44.0,44.0,29.97,NW,317,10.0,45.0,100,0.06,,,0.21,0.000000,,2013-03-08 09:21:00,
2013-03-08 01:32:00,44.0,44.0,29.97,NW,317,10.0,45.0,100,0.06,,,0.21,0.000000,,2013-03-08 09:32:00,
2013-03-08 01:42:00,44.0,44.0,29.97,NW,317,10.0,45.0,100,0.06,,,0.21,0.000000,,2013-03-08 09:42:00,
2013-03-08 01:51:00,44.0,44.0,29.97,NW,317,10.0,45.0,100,0.06,,,0.21,0.000000,,2013-03-08 09:51:00,
2013-03-08 02:21:00,41.0,41.0,29.95,NE,53,2.0,17.0,100,0.27,,,0.48,0.000000,,2013-03-08 10:21:00,
2013-03-08 02:31:00,41.0,41.0,29.95,NE,53,2.0,17.0,100,0.27,,,0.48,0.000000,,2013-03-08 10:31:00,
2013-03-08 02:41:00,41.0,41.0,29.95,NE,53,2.0,17.0,100,0.27,,,0.48,0.000000,,2013-03-08 10:41:00,
2013-03-08 02:51:00,41.0,41.0,29.95,NE,53,2.0,17.0,100,0.27,,,0.48,0.000000,,2013-03-08 10:51:00,
2013-03-08 03:21:00,41.0,41.0,29.94,West,269,4.0,13.0,100,0.11,,,0.59,0.000000,,2013-03-08 11:21:00,
2013-03-08 03:32:00,41.0,41.0,29.94,West,269,4.0,13.0,100,0.11,,,0.59,0.000000,,2013-03-08 11:32:00,
2013-03-08 03:41:00,41.0,41.0,29.94,West,269,4.0,13.0,100,0.11,,,0.59,0.000000,,2013-03-08 11:41:00,
2013-03-08 03:52:00,41.0,41.0,29.94,West,269,4.0,13.0,100,0.11,,,0.59,0.000000,,2013-03-08 11:52:00,
2013-03-08 04:22:00,39.0,39.0,29.92,SSE,163,10.0,20.0,100,0.14,,,0.73,0.000000,,2013-03-08 12:22:00,
2013-03-08 04:32:00,39.0,39.0,29.92,SSE,163,10.0,20.0,100,0.14,,,0.73,0.000000,,2013-03-08 12:32:00,
2013-03-08 04:42:00,39.0,39.0,29.92,SSE,163,10.0,20.0,100,0.14,,,0.73,0.000000,,2013-03-08 12:42:00,
2013-03-08 04:52:00,39.0,39.0,29.92,SSE,163,10.0,20.0,100,0.14,,,0.73,0.000000,,2013-03-08 12:52:00,
2013-03-08 05:21:00,38.0,38.0,29.93,ESE,116,3.0,12.0,100,0.01,,,0.74,0.000000,,2013-03-08 13:21:00,
2013-03-08 05:32:00,38.0,38.0,29.93,ESE,116,3.0,12.0,100,0.01,,,0.74,0.000000,,2013-03-08 13:32:00,
2013-03-08 05:42:00,38.0,38.0,29.93,ESE,116,3.0,12.0,100,0.01,,,0.74,0.000000,,2013-03-08 13:42:00,
2013-03-08 05:52:00,38.0,38.0,29.93,ESE,116,3.0,12.0,100,0.01,,,0.74,0.000000,,2013-03-08 13:52:00,
2013-03-08 06:22:00,40.0,40.0,29.95,NE,38,2.0,8.0,100,0.00,,,-99.99,0.000000,,2013-03-08 14:22:00,
2013-03-08 06:32:00,40.0,40.0,29.95,NE,38,2.0,8.0,100,0.00,,,-99.99,0.000000,,2013-03-08 14:32:00,
2013-03-08 06:42:00,40.0,40.0,29.95,NE,38,2.0,8.0,100,0.00,,,-99.99,0.000000,,2013-03-08 14:42:00,
2013-03-08 06:52:00,40.0,40.0,29.95,NE,38,2.0,8.0,100,0.00,,,-99.99,0.000000,,2013-03-08 14:52:00,
2013-03-08 07:22:00,40.0,40.0,29.97,WNW,303,2.0,7.0,100,0.00,,,0.74,0.000000,,2013-03-08 15:22:00,
2013-03-08 07:32:00,40.0,40.0,29.97,WNW,303,2.0,7.0,100,0.00,,,0.74,0.000000,,2013-03-08 15:32:00,
2013-03-08 07:42:00,40.0,40.0,29.97,WNW,303,2.0,7.0,100,0.00,,,0.74,0.000000,,2013-03-08 15:42:00,
2013-03-08 07:52:00,40.0,40.0,29.97,WNW,303,2.0,7.0,100,0.00,,,0.74,0.000000,,2013-03-08 15:52:00,
2013-03-08 08:21:00,46.0,43.0,30.00,WNW,287,4.0,7.0,90,0.00,,,0.74,191.000000,,2013-03-08 16:21:00,
2013-03-08 08:31:00,46.0,43.0,30.00,WNW,287,4.0,7.0,90,0.00,,,0.74,191.000000,,2013-03-08 16:31:00,
2013-03-08 08:42:00,46.0,43.0,30.00,WNW,287,4.0,7.0,90,0.00,,,0.74,191.000000,,2013-03-08 16:42:00,
2013-03-08 08:51:00,46.0,43.0,30.00,WNW,287,4.0,7.0,90,0.00,,,0.74,191.000000,,2013-03-08 16:51:00,
2013-03-08 09:21:00,46.0,41.0,30.02,SE,132,3.0,7.0,83,0.00,,,0.74,360.000000,,2013-03-08 17:21:00,
2013-03-08 09:32:00,46.0,41.0,30.02,SE,132,3.0,7.0,83,0.00,,,0.74,360.000000,,2013-03-08 17:32:00,
2013-03-08 09:41:00,46.0,41.0,30.02,SE,132,3.0,7.0,83,0.00,,,0.74,360.000000,,2013-03-08 17:41:00,
2013-03-08 09:52:00,46.0,41.0,30.02,SE,132,3.0,7.0,83,0.00,,,0.74,360.000000,,2013-03-08 17:52:00,
2013-03-08 10:21:00,50.0,42.0,30.02,NE,45,3.0,10.0,74,0.00,,,0.74,462.000000,,2013-03-08 18:21:00,
2013-03-08 10:31:00,50.0,42.0,30.02,NE,45,3.0,10.0,74,0.00,,,0.74,462.000000,,2013-03-08 18:31:00,
2013-03-08 10:42:00,50.0,42.0,30.02,NE,45,3.0,10.0,74,0.00,,,0.74,462.000000,,2013-03-08 18:42:00,
2013-03-08 10:51:00,50.0,42.0,30.02,NE,45,3.0,10.0,74,0.00,,,0.74,462.000000,,2013-03-08 18:51:00,
2013-03-08 11:21:00,49.0,41.0,30.04,NW,312,7.0,15.0,73,0.00,,,0.74,541.000000,,2013-03-08 19:21:00,
2013-03-08 11:32:00,49.0,41.0,30.04,NW,312,7.0,15.0,73,0.00,,,0.74,541.000000,,2013-03-08 19:32:00,
2013-03-08 11:41:00,49.0,41.0,30.04,NW,312,7.0,15.0,73,0.00,,,0.74,541.000000,,2013-03-08 19:41:00,
2013-03-08 11:51:00,49.0,41.0,30.04,NW,312,7.0,15.0,73,0.00,,,0.74,541.000000,,2013-03-08 19:51:00,
2013-03-08 12:21:00,50.0,42.0,30.04,WNW,294,9.0,20.0,74,0.00,,,0.74,833.000000,,2013-03-08 20:21:00,
2013-03-08 12:32:00,50.0,42.0,30.04,WNW,294,9.0,20.0,74,0.00,,,0.74,833.000000,,2013-03-08 20:32:00,
2013-03-08 12:41:00,50.0,42.0,30.04,WNW,294,9.0,20.0,74,0.00,,,0.74,833.000000,,2013-03-08 20:41:00,
2013-03-08 12:52:00,50.0,42.0,30.04,WNW,294,9.0,20.0,74,0.00,,,0.74,833.000000,,2013-03-08 20:52:00,
2013-03-08 13:21:00,51.0,39.0,30.02,East,84,8.0,17.0,64,0.00,,,0.74,367.000000,,2013-03-08 21:21:00,
2013-03-08 13:32:00,51.0,39.0,30.02,East,84,8.0,17.0,64,0.00,,,0.74,367.000000,,2013-03-08 21:32:00,
2013-03-08 13:41:00,51.0,39.0,30.02,East,84,8.0,17.0,64,0.00,,,0.74,367.000000,,2013-03-08 21:41:00,
2013-03-08 13:51:00,51.0,39.0,30.02,East,84,8.0,17.0,64,0.00,,,0.74,367.000000,,2013-03-08 21:51:00,
2013-03-08 14:22:00,54.0,42.0,30.02,SSE,151,7.0,22.0,63,0.00,,,0.74,655.000000,,2013-03-08 22:22:00,
2013-03-08 14:32:00,54.0,42.0,30.02,SSE,151,7.0,22.0,63,0.00,,,0.74,655.000000,,2013-03-08 22:32:00,
2013-03-08 14:42:00,54.0,42.0,30.02,SSE,151,7.0,22.0,63,0.00,,,0.74,655.000000,,2013-03-08 22:42:00,
2013-03-08 14:52:00,54.0,42.0,30.02,SSE,151,7.0,22.0,63,0.00,,,0.74,655.000000,,2013-03-08 22:52:00,
2013-03-08 15:21:00,53.0,38.0,30.03,East,93,10.0,18.0,57,0.00,,,0.74,848.000000,,2013-03-08 23:21:00,
2013-03-08 15:32:00,53.0,38.0,30.03,East,93,10.0,18.0,57,0.00,,,0.74,848.000000,,2013-03-08 23:32:00,
2013-03-08 15:42:00,53.0,38.0,30.03,East,93,10.0,18.0,57,0.00,,,0.74,848.000000,,2013-03-08 23:42:00,
2013-03-08 15:52:00,53.0,38.0,30.03,East,93,10.0,18.0,57,0.00,,,0.74,848.000000,,2013-03-08 23:52:00,
2013-03-08 16:21:00,54.0,41.0,30.02,ENE,59,7.0,15.0,62,0.00,,,0.74,255.000000,,2013-03-09 00:21:00,
2013-03-08 16:32:00,54.0,41.0,30.02,ENE,59,7.0,15.0,62,0.00,,,0.74,255.000000,,2013-03-09 00:32:00,
2013-03-08 16:42:00,54.0,41.0,30.02,ENE,59,7.0,15.0,62,0.00,,,0.74,255.000000,,2013-03-09 00:42:00,
2013-03-08 16:51:00,54.0,41.0,30.02,ENE,59,7.0,15.0,62,0.00,,,0.74,255.000000,,2013-03-09 00:51:00,
2013-03-08 17:21:00,49.0,40.0,30.04,ENE,76,10.0,20.0,71,0.00,,,0.74,52.000000,,2013-03-09 01:21:00,
2013-03-08 17:32:00,49.0,40.0,30.04,ENE,76,10.0,20.0,71,0.00,,,0.74,52.000000,,2013-03-09 01:32:00,
2013-03-08 17:41:00,49.0,40.0,30.04,ENE,76,10.0,20.0,71,0.00,,,0.74,52.000000,,2013-03-09 01:41:00,
2013-03-08 17:51:00,49.0,40.0,30.04,ENE,76,10.0,20.0,71,0.00,,,0.74,52.000000,,2013-03-09 01:51:00,
2013-03-08 20:22:00,47.0,44.0,30.12,North,6,3.0,12.0,89,-99.99,,,0.74,0.000000,,2013-03-09 04:22:00,
2013-03-08 20:31:00,47.0,44.0,30.12,North,6,3.0,12.0,89,-99.99,,,0.74,0.000000,,2013-03-09 04:31:00,
2013-03-08 20:41:00,47.0,44.0,30.12,North,6,3.0,12.0,89,-99.99,,,0.74,0.000000,,2013-03-09 04:41:00,
2013-03-08 20:51:00,47.0,44.0,30.12,North,6,3.0,12.0,89,-99.99,,,0.74,0.000000,,2013-03-09 04:51:00,
2013-03-08 21:21:00,47.0,45.0,30.14,East,86,9.0,17.0,93,0.00,,,0.74,0.000000,,2013-03-09 05:21:00,
2013-03-08 21:31:00,47.0,45.0,30.14,East,86,9.0,17.0,93,0.00,,,0.74,0.000000,,2013-03-09 05:31:00,
2013-03-08 21:42:00,47.0,45.0,30.14,East,86,9.0,17.0,93,0.00,,,0.74,0.000000,,2013-03-09 05:42:00,
2013-03-08 21:52:00,47.0,45.0,30.14,East,86,9.0,17.0,93,0.00,,,0.74,0.000000,,2013-03-09 05:52:00,
2013-03-08 22:22:00,46.0,45.0,30.16,East,82,8.0,16.0,95,0.00,,,0.72,0.000000,,2013-03-09 06:22:00,
2013-03-08 22:31:00,46.0,45.0,30.16,East,82,8.0,16.0,95,0.00,,,0.72,0.000000,,2013-03-09 06:31:00,
2013-03-08 22:42:00,46.0,45.0,30.16,East,82,8.0,16.0,95,0.00,,,0.72,0.000000,,2013-03-09 06:42:00,
2013-03-08 22:51:00,46.0,45.0,30.16,East,82,8.0,16.0,95,0.00,,,0.72,0.000000,,2013-03-09 06:51:00,
2013-03-08 23:21:00,45.0,44.0,30.16,East,93,9.0,14.0,96,0.00,,,0.69,0.000000,,2013-03-09 07:21:00,
2013-03-08 23:31:00,45.0,44.0,30.16,East,93,9.0,14.0,96,0.00,,,0.69,0.000000,,2013-03-09 07:31:00,
2013-03-08 23:41:00,45.0,44.0,30.16,East,93,9.0,14.0,96,0.00,,,0.69,0.000000,,2013-03-09 07:41:00,
2013-03-08 23:51:00,45.0,44.0,30.16,East,93,9.0,14.0,96,0.00,,,0.69,0.000000,,2013-03-09 07:51:00,